Terminal Aerodrome Forecast
Issued by NWS Cheyenne, WY

Home | Current Version | Previous Version | Text Only | Print | Product List | Glossary On
Versions: 1 2 3 4 5 6 7 8 9 10 11 12 13 14 15 16 17 18 19 20 21 22
000
FTUS45 KCYS 201120
TAFCYS
TAF
KCYS 201120Z 2012/2112 31010KT P6SM SCT080 SCT120
     FM201800 21016G27KT P6SM BKN120
     FM210000 16010G18KT P6SM SCT150=

USA.gov is the U.S. government's official web portal to all federal, state and local government web resources and services.